createdAt,value
2023-02-09T00:02:24.823Z,77.79
2023-02-09T00:05:34.493Z,75.83
2023-02-09T00:08:43.586Z,77.50
2023-02-09T00:12:09.410Z,77.39
2023-02-09T00:15:17.622Z,76.87
2023-02-09T00:18:28.469Z,77.26
2023-02-09T00:21:39.203Z,77.33
2023-02-09T00:24:47.409Z,77.53
2023-02-09T00:27:55.601Z,78.27
2023-02-09T00:31:09.684Z,76.93
2023-02-09T00:34:21.331Z,76.28
2023-02-09T00:37:31.029Z,77.60
2023-02-09T00:40:40.716Z,77.10
2023-02-09T00:43:49.311Z,76.90
2023-02-09T00:46:57.743Z,76.71
2023-02-09T00:50:08.435Z,76.21
2023-02-09T00:53:17.953Z,76.25
2023-02-09T00:56:26.271Z,77.73
2023-02-09T00:59:36.270Z,77.21
2023-02-09T01:02:44.394Z,77.67
2023-02-09T01:05:53.357Z,77.28
2023-02-09T01:09:03.595Z,75.56
2023-02-09T01:12:12.941Z,75.10
2023-02-09T01:15:21.526Z,75.58
2023-02-09T01:18:29.765Z,76.93
2023-02-09T01:21:38.031Z,76.97
2023-02-09T01:24:47.870Z,77.40
2023-02-09T01:27:57.877Z,77.42
2023-02-09T01:31:07.842Z,76.51
2023-02-09T01:34:19.003Z,76.74
2023-02-09T01:47:49.607Z,76.45
2023-02-09T01:51:01.513Z,77.40
2023-02-09T01:54:15.891Z,77.19
2023-02-09T01:57:32.287Z,77.51
2023-02-09T02:00:40.828Z,76.83
2023-02-09T02:03:50.520Z,76.79
2023-02-09T02:07:11.098Z,77.04
2023-02-09T02:10:20.298Z,76.94
2023-02-09T02:13:28.613Z,76.72
2023-02-09T02:16:53.422Z,76.49
2023-02-09T02:20:47.533Z,76.76
2023-02-09T02:24:41.977Z,77.15
2023-02-09T02:28:02.426Z,76.61
2023-02-09T02:31:53.606Z,76.94
2023-02-09T02:35:10.345Z,76.91
2023-02-09T02:38:34.505Z,76.16
2023-02-09T02:42:10.884Z,77.29
2023-02-09T02:45:33.600Z,76.15
2023-02-09T02:48:48.737Z,75.81
2023-02-09T02:52:03.699Z,77.15
2023-02-09T02:55:16.051Z,77.05
2023-02-09T02:58:29.290Z,78.81
2023-02-09T03:01:47.309Z,78.94
2023-02-09T03:04:59.763Z,78.96
2023-02-09T03:08:08.162Z,77.85
2023-02-09T03:11:17.591Z,77.72
2023-02-09T03:14:44.891Z,77.92
2023-02-09T03:18:11.079Z,78.13
2023-02-09T03:21:33.143Z,78.16
2023-02-09T03:24:49.971Z,77.72
2023-02-09T03:28:04.927Z,77.12
2023-02-09T03:31:14.933Z,77.64
2023-02-09T03:34:23.258Z,77.21
2023-02-09T03:37:33.020Z,76.85
2023-02-09T03:40:41.500Z,76.74
2023-02-09T03:44:07.357Z,77.13
2023-02-09T03:47:15.850Z,76.36
2023-02-09T03:50:24.013Z,76.51
2023-02-09T03:53:36.353Z,75.82
2023-02-09T03:56:44.640Z,75.89
2023-02-09T03:59:52.840Z,75.75
2023-02-09T04:03:00.996Z,75.61
2023-02-09T04:06:09.984Z,74.98
2023-02-09T04:09:19.790Z,75.34
2023-02-09T04:12:27.973Z,75.30
2023-02-09T04:15:36.533Z,75.78
2023-02-09T04:18:44.745Z,76.06
2023-02-09T04:21:53.011Z,75.60
2023-02-09T04:25:10.058Z,76.17
2023-02-09T04:28:18.292Z,76.40
2023-02-09T04:31:26.651Z,76.65
2023-02-09T04:34:34.824Z,76.16
2023-02-09T04:37:42.887Z,76.26
2023-02-09T04:40:55.367Z,75.63
2023-02-09T04:44:03.584Z,75.35
2023-02-09T04:47:11.688Z,76.47
2023-02-09T04:50:19.937Z,76.10
2023-02-09T04:53:29.544Z,76.44
2023-02-09T04:56:39.082Z,76.64
2023-02-09T04:59:46.559Z,76.12
2023-02-09T05:02:56.171Z,76.73
2023-02-09T05:06:07.264Z,76.19
2023-02-09T05:09:15.472Z,76.40
2023-02-09T05:12:25.016Z,75.95
2023-02-09T05:15:33.287Z,75.67
2023-02-09T05:18:41.498Z,75.29
2023-02-09T05:21:49.639Z,76.43
2023-02-09T05:24:57.789Z,76.40
2023-02-09T05:28:08.044Z,75.78
2023-02-09T05:31:16.547Z,75.65
2023-02-09T05:34:25.042Z,75.72
2023-02-09T05:37:33.289Z,75.79
2023-02-09T05:40:41.945Z,75.56
2023-02-09T05:43:52.205Z,76.02
2023-02-09T05:47:00.538Z,76.42
2023-02-09T05:50:09.306Z,76.02
2023-02-09T05:53:17.617Z,75.95
2023-02-09T05:56:26.325Z,76.32
2023-02-09T05:59:35.971Z,75.88
2023-02-09T06:02:44.834Z,75.82
2023-02-09T06:05:53.038Z,75.67
2023-02-09T06:09:02.024Z,75.85
2023-02-09T06:12:10.235Z,76.08
2023-02-09T06:15:21.039Z,76.02
2023-02-09T06:18:29.237Z,76.75
2023-02-09T06:21:37.548Z,76.76
2023-02-09T06:24:45.789Z,76.74
2023-02-09T06:27:53.986Z,75.74
2023-02-09T06:31:04.376Z,74.16
2023-02-09T06:34:12.730Z,76.20
2023-02-09T06:37:20.814Z,76.52
2023-02-09T06:40:29.715Z,76.30
2023-02-09T06:43:38.297Z,76.39
2023-02-09T06:46:48.636Z,76.22
2023-02-09T06:49:56.849Z,76.23
2023-02-09T06:53:06.247Z,75.89
2023-02-09T06:56:17.328Z,75.69
2023-02-09T06:59:28.491Z,76.10
2023-02-09T07:02:38.561Z,74.34
2023-02-09T07:05:46.826Z,74.85
2023-02-09T07:08:55.120Z,75.22
2023-02-09T07:12:03.427Z,73.97
2023-02-09T07:15:13.726Z,73.93
2023-02-09T07:18:27.631Z,74.78
2023-02-09T07:21:39.040Z,75.28
2023-02-09T07:24:49.949Z,75.23
2023-02-09T07:27:58.424Z,73.83
2023-02-09T07:31:09.744Z,73.73
2023-02-09T07:34:19.464Z,73.91
2023-02-09T07:37:27.851Z,73.60
2023-02-09T07:40:39.256Z,73.54
2023-02-09T07:43:47.923Z,71.09
2023-02-09T07:46:59.098Z,72.69
2023-02-09T07:50:10.360Z,70.56
2023-02-09T07:53:18.751Z,69.47
2023-02-09T07:56:28.022Z,71.62
2023-02-09T07:59:36.718Z,70.26
2023-02-09T08:02:46.528Z,72.05
2023-02-09T08:09:33.449Z,71.50
2023-02-09T08:12:55.895Z,70.79
2023-02-09T08:16:08.609Z,71.45
2023-02-09T08:19:24.177Z,69.96
2023-02-09T08:22:37.750Z,69.98
2023-02-09T08:25:51.622Z,70.43
2023-02-09T08:29:00.333Z,71.26
2023-02-09T08:32:08.626Z,68.08
2023-02-09T08:35:18.030Z,67.74
2023-02-09T08:38:27.385Z,68.10
2023-02-09T08:41:40.848Z,71.09
2023-02-09T08:44:49.292Z,69.63
2023-02-09T08:47:57.760Z,70.46
2023-02-09T08:51:07.107Z,69.23
2023-02-09T08:54:15.952Z,66.89
2023-02-09T08:57:41.655Z,64.61
2023-02-09T09:00:51.492Z,62.91
2023-02-09T09:04:00.012Z,64.14
2023-02-09T09:07:08.176Z,63.71
2023-02-09T09:10:16.938Z,63.21
2023-02-09T09:13:29.462Z,63.32
2023-02-09T09:16:39.229Z,61.93
2023-02-09T09:19:52.699Z,60.83
2023-02-09T09:23:02.105Z,61.24
2023-02-09T09:26:10.853Z,59.83
2023-02-09T09:29:20.770Z,60.79
2023-02-09T09:32:29.238Z,60.09
2023-02-09T09:35:38.013Z,60.04
2023-02-09T09:38:46.346Z,60.44
2023-02-09T09:41:59.687Z,59.38
2023-02-09T09:45:20.381Z,60.49
2023-02-09T09:48:39.733Z,59.70
2023-02-09T09:51:53.866Z,59.30
2023-02-09T09:55:06.826Z,56.79
2023-02-09T09:58:20.680Z,56.84
2023-02-09T10:01:34.177Z,57.15
2023-02-09T10:04:42.789Z,56.92
2023-02-09T10:08:00.895Z,55.58
2023-02-09T10:11:14.121Z,55.50
2023-02-09T10:14:23.755Z,56.21
2023-02-09T10:17:33.679Z,55.32
2023-02-09T10:20:47.717Z,55.67
2023-02-09T10:24:13.596Z,53.96
2023-02-09T10:27:30.998Z,53.76
2023-02-09T10:30:39.652Z,54.08
2023-02-09T10:33:56.764Z,56.14
2023-02-09T10:37:27.419Z,54.27
2023-02-09T10:40:42.168Z,55.00
2023-02-09T10:43:53.853Z,51.85
2023-02-09T10:47:28.350Z,57.88
2023-02-09T10:50:53.755Z,52.88
2023-02-09T10:54:07.392Z,51.79
2023-02-09T10:57:29.830Z,53.66
2023-02-09T11:00:49.633Z,52.34
2023-02-09T11:04:02.663Z,51.31
2023-02-09T11:07:18.366Z,50.16
2023-02-09T11:10:31.033Z,48.90
2023-02-09T11:13:43.585Z,48.28
2023-02-09T11:17:18.300Z,47.07
2023-02-09T11:20:33.635Z,47.59
2023-02-09T11:23:56.971Z,47.60
2023-02-09T11:27:21.468Z,46.65
2023-02-09T11:30:57.062Z,47.54
2023-02-09T11:34:19.421Z,46.84
2023-02-09T11:37:44.021Z,47.05
2023-02-09T11:40:57.559Z,46.16
2023-02-09T11:44:12.586Z,46.85
2023-02-09T11:47:29.635Z,47.09
2023-02-09T11:50:52.400Z,45.82
2023-02-09T11:54:08.876Z,45.86
2023-02-09T11:57:35.781Z,46.54
2023-02-09T12:01:01.702Z,48.26
2023-02-09T12:04:24.806Z,48.34
2023-02-09T12:07:42.976Z,47.44
2023-02-09T12:11:09.098Z,46.49
2023-02-09T12:14:47.014Z,46.31
2023-02-09T12:18:01.072Z,46.97
2023-02-09T12:21:10.325Z,46.80
2023-02-09T12:24:40.091Z,47.55
2023-02-09T12:28:18.390Z,46.40
2023-02-09T12:31:29.061Z,46.91
2023-02-09T12:34:42.155Z,46.90
2023-02-09T12:38:19.212Z,46.29
2023-02-09T12:41:30.417Z,46.49
2023-02-09T12:44:40.179Z,46.01
2023-02-09T12:48:01.060Z,47.32
2023-02-09T12:52:07.663Z,46.11
2023-02-09T12:55:23.681Z,45.69
2023-02-09T12:58:41.419Z,45.63
2023-02-09T13:02:15.963Z,46.53
2023-02-09T13:05:30.342Z,47.42
2023-02-09T13:08:49.994Z,46.41
2023-02-09T13:12:11.593Z,45.50
2023-02-09T13:15:20.665Z,46.34
2023-02-09T13:18:39.566Z,45.29
2023-02-09T13:22:02.558Z,45.63
2023-02-09T13:25:21.536Z,45.94
2023-02-09T13:28:31.046Z,46.29
2023-02-09T13:31:43.658Z,45.90
2023-02-09T13:35:01.438Z,45.58
2023-02-09T13:38:18.490Z,45.89
2023-02-09T13:41:38.546Z,46.07
2023-02-09T13:44:51.160Z,46.77
2023-02-09T13:48:02.786Z,44.31
2023-02-09T13:51:19.340Z,43.19
2023-02-09T13:54:28.951Z,45.27
2023-02-09T13:57:40.477Z,46.13
2023-02-09T14:00:53.624Z,44.59
2023-02-09T14:04:13.227Z,44.20
2023-02-09T14:07:25.812Z,44.91
2023-02-09T14:10:36.597Z,44.42
2023-02-09T14:13:53.114Z,43.02
2023-02-09T14:17:24.359Z,44.39
2023-02-09T14:20:33.373Z,44.06
2023-02-09T14:23:44.130Z,44.25
2023-02-09T14:27:24.758Z,44.16
2023-02-09T14:30:36.308Z,44.88
2023-02-09T14:33:50.025Z,44.96
2023-02-09T14:37:02.426Z,47.23
2023-02-09T14:40:25.122Z,46.59
2023-02-09T14:43:34.670Z,46.64
2023-02-09T14:46:53.190Z,48.68
2023-02-09T14:50:02.125Z,47.12
2023-02-09T14:53:16.191Z,48.82
2023-02-09T14:56:31.080Z,50.13
2023-02-09T14:59:40.781Z,47.85
2023-02-09T15:02:50.348Z,48.69
2023-02-09T15:06:02.328Z,48.52
2023-02-09T15:09:21.384Z,49.10
2023-02-09T15:12:31.298Z,51.37
2023-02-09T15:15:41.470Z,48.09
2023-02-09T15:18:50.143Z,49.94
2023-02-09T15:22:07.015Z,49.77
2023-02-09T15:25:19.091Z,49.82
2023-02-09T15:28:30.399Z,51.37
2023-02-09T15:31:40.761Z,52.02
2023-02-09T15:34:49.817Z,50.46
2023-02-09T15:38:01.422Z,50.08
2023-02-09T15:41:30.091Z,50.33
2023-02-09T15:44:55.800Z,50.60
2023-02-09T15:48:10.019Z,52.30
2023-02-09T15:51:18.706Z,53.22
2023-02-09T15:54:34.705Z,53.14
2023-02-09T15:57:42.912Z,53.34
2023-02-09T16:00:52.984Z,53.91
2023-02-09T16:04:13.786Z,55.24
2023-02-09T16:07:29.189Z,55.34
2023-02-09T16:10:39.006Z,56.10
2023-02-09T16:13:48.167Z,56.33
2023-02-09T16:16:57.031Z,55.94
2023-02-09T16:20:08.806Z,56.52
2023-02-09T16:23:24.087Z,57.20
2023-02-09T16:26:34.268Z,57.87
2023-02-09T16:29:42.699Z,57.70
2023-02-09T16:32:52.075Z,58.20
2023-02-09T16:36:05.156Z,59.26
2023-02-09T16:39:18.919Z,60.21
2023-02-09T16:42:29.412Z,61.05
2023-02-09T16:45:44.614Z,61.82
2023-02-09T16:48:56.590Z,61.68
2023-02-09T16:52:16.704Z,62.19
2023-02-09T16:55:29.933Z,62.43
2023-02-09T16:58:40.262Z,63.58
2023-02-09T17:01:49.141Z,63.50
2023-02-09T17:04:58.101Z,63.99
2023-02-09T17:08:17.016Z,64.35
2023-02-09T17:11:29.420Z,65.34
2023-02-09T17:14:38.185Z,65.82
2023-02-09T17:17:52.191Z,66.19
2023-02-09T17:21:06.825Z,65.83
2023-02-09T17:24:18.840Z,66.84
2023-02-09T17:27:27.249Z,66.66
2023-02-09T17:30:36.678Z,67.75
2023-02-09T17:33:47.623Z,67.68
2023-02-09T17:36:56.031Z,67.40
2023-02-09T17:40:06.411Z,70.38
2023-02-09T17:43:14.570Z,73.95
2023-02-09T17:46:23.726Z,74.23
2023-02-09T17:49:32.180Z,74.05
2023-02-09T17:52:40.561Z,74.71
2023-02-09T17:55:51.613Z,76.29
2023-02-09T17:59:03.064Z,76.33
2023-02-09T18:02:17.519Z,74.98
2023-02-09T18:05:28.568Z,74.51
2023-02-09T18:08:36.675Z,74.34
2023-02-09T18:12:02.407Z,73.74
2023-02-09T18:15:23.128Z,74.30
2023-02-09T18:18:31.218Z,72.89
2023-02-09T18:21:40.852Z,72.98
2023-02-09T18:24:49.186Z,73.51
2023-02-09T18:27:58.781Z,72.17
2023-02-09T18:31:07.280Z,72.18
2023-02-09T18:34:16.719Z,72.61
2023-02-09T18:37:24.840Z,72.21
2023-02-09T18:40:34.433Z,71.16
2023-02-09T18:43:44.683Z,72.56
2023-02-09T18:46:52.905Z,72.22
2023-02-09T18:50:01.269Z,72.42
2023-02-09T18:53:09.594Z,72.69
2023-02-09T18:56:20.351Z,73.45
2023-02-09T18:59:32.094Z,72.64
2023-02-09T19:02:40.609Z,72.03
2023-02-09T19:05:49.240Z,70.69
2023-02-09T19:08:57.605Z,71.78
2023-02-09T19:12:09.633Z,72.45
2023-02-09T19:15:22.416Z,72.60
2023-02-09T19:18:31.775Z,72.65
2023-02-09T19:21:39.998Z,71.67
2023-02-09T19:24:51.370Z,72.45
2023-02-09T19:28:04.413Z,72.01
2023-02-09T19:31:15.999Z,72.69
2023-02-09T19:34:25.285Z,73.83
2023-02-09T19:37:33.880Z,73.71
2023-02-09T19:40:43.636Z,74.04
2023-02-09T19:43:56.912Z,75.39
2023-02-09T19:47:06.958Z,74.49
2023-02-09T19:50:18.975Z,74.32
2023-02-09T19:53:28.608Z,75.50
2023-02-09T19:56:36.872Z,75.65
2023-02-09T19:59:45.519Z,75.47
2023-02-09T20:02:55.193Z,75.46
2023-02-09T20:06:09.220Z,75.64
2023-02-09T20:09:17.694Z,75.04
2023-02-09T20:12:25.825Z,74.90
2023-02-09T20:15:42.012Z,73.93
2023-02-09T20:18:55.572Z,74.27
2023-02-09T20:22:03.981Z,74.67
2023-02-09T20:25:15.139Z,74.30
2023-02-09T20:28:24.340Z,73.67
2023-02-09T20:31:38.094Z,74.43
2023-02-09T20:34:48.297Z,74.41
2023-02-09T20:37:56.476Z,72.65
2023-02-09T20:41:09.671Z,72.42
2023-02-09T20:44:35.418Z,72.06
2023-02-09T20:47:43.668Z,72.18
2023-02-09T20:50:53.567Z,72.95
2023-02-09T20:54:02.049Z,73.75
2023-02-09T20:57:10.731Z,72.93
2023-02-09T21:00:19.824Z,72.60
2023-02-09T21:03:27.915Z,74.03
2023-02-09T21:06:39.316Z,74.00
2023-02-09T21:09:48.222Z,75.26
2023-02-09T21:12:56.358Z,75.82
2023-02-09T21:16:04.756Z,76.70
2023-02-09T21:19:12.953Z,77.71
2023-02-09T21:22:22.704Z,77.95
2023-02-09T21:25:31.603Z,77.93
2023-02-09T21:28:39.742Z,78.01
2023-02-09T21:31:47.998Z,77.62
2023-02-09T21:34:56.381Z,77.92
2023-02-09T21:38:05.981Z,77.66
2023-02-09T21:41:32.789Z,79.22
2023-02-09T21:44:40.933Z,78.78
2023-02-09T21:47:49.527Z,78.78
2023-02-09T21:50:57.997Z,79.14
2023-02-09T21:54:07.824Z,77.70
2023-02-09T21:57:16.057Z,76.48
2023-02-09T22:00:24.455Z,77.44
2023-02-09T22:03:32.884Z,76.86
2023-02-09T22:06:41.964Z,77.14
2023-02-09T22:09:51.470Z,76.34
2023-02-09T22:12:59.661Z,77.21
2023-02-09T22:16:09.719Z,76.08
2023-02-09T22:19:17.802Z,75.81
2023-02-09T22:22:25.971Z,76.02
2023-02-09T22:25:36.072Z,75.34
2023-02-09T22:28:44.288Z,75.29
2023-02-09T22:31:52.442Z,75.32
2023-02-09T22:35:00.582Z,76.15
2023-02-09T22:38:08.725Z,75.75
2023-02-09T22:41:24.481Z,75.59
2023-02-09T22:44:33.445Z,76.02
2023-02-09T22:47:41.739Z,75.93
2023-02-09T22:50:49.845Z,76.36
2023-02-09T22:54:00.357Z,76.05
2023-02-09T22:57:09.909Z,76.51
2023-02-09T23:00:19.268Z,76.20
2023-02-09T23:03:27.527Z,77.14
2023-02-09T23:06:35.824Z,77.45
2023-02-09T23:09:44.502Z,76.54
2023-02-09T23:12:53.987Z,74.85
2023-02-09T23:16:11.103Z,76.22
2023-02-09T23:19:21.515Z,76.65
2023-02-09T23:22:29.834Z,76.84
2023-02-09T23:25:38.150Z,76.91
2023-02-09T23:28:48.280Z,77.11
2023-02-09T23:31:56.699Z,77.50
2023-02-09T23:35:05.392Z,77.46
2023-02-09T23:38:13.668Z,77.77
2023-02-09T23:41:24.599Z,78.09
2023-02-09T23:44:34.767Z,78.79
2023-02-09T23:47:43.007Z,79.38
2023-02-09T23:50:51.522Z,78.80
2023-02-09T23:54:03.705Z,77.83
2023-02-09T23:57:12.056Z,77.25
